createdAt,value
2023-01-29T00:02:24.693Z,26.84
2023-01-29T00:05:26.879Z,26.83
2023-01-29T00:08:19.077Z,26.89
2023-01-29T00:11:11.220Z,27.16
2023-01-29T00:14:01.592Z,27.20
2023-01-29T00:16:52.255Z,27.13
2023-01-29T00:19:42.283Z,27.45
2023-01-29T00:22:34.614Z,27.29
2023-01-29T00:25:25.547Z,27.61
2023-01-29T00:28:16.446Z,27.55
2023-01-29T00:31:12.867Z,27.63
2023-01-29T00:34:03.814Z,27.90
2023-01-29T00:37:05.220Z,27.85
2023-01-29T00:39:55.859Z,27.71
2023-01-29T00:43:05.461Z,27.78
2023-01-29T00:45:56.622Z,27.72
2023-01-29T00:48:47.611Z,27.86
2023-01-29T00:51:39.344Z,27.83
2023-01-29T00:54:31.891Z,27.81
2023-01-29T00:57:23.546Z,27.92
2023-01-29T01:00:17.909Z,27.75
2023-01-29T01:03:08.381Z,27.66
2023-01-29T01:06:09.395Z,27.54
2023-01-29T01:09:17.242Z,27.55
2023-01-29T01:12:08.443Z,27.47
2023-01-29T01:14:59.502Z,27.41
2023-01-29T01:17:53.027Z,27.49
2023-01-29T01:20:43.749Z,27.56
2023-01-29T01:23:34.662Z,27.49
2023-01-29T01:26:25.262Z,27.56
2023-01-29T01:29:15.422Z,27.56
2023-01-29T01:32:06.168Z,27.61
2023-01-29T01:34:56.487Z,27.61
2023-01-29T01:37:46.579Z,27.63
2023-01-29T01:40:36.925Z,27.67
2023-01-29T01:43:27.763Z,27.84
2023-01-29T01:46:18.098Z,27.74
2023-01-29T01:49:13.099Z,27.65
2023-01-29T01:52:03.869Z,27.60
2023-01-29T01:54:55.206Z,27.61
2023-01-29T01:57:49.565Z,27.61
2023-01-29T02:00:40.534Z,27.82
2023-01-29T02:03:50.042Z,28.34
2023-01-29T02:07:00.743Z,28.04
2023-01-29T02:09:54.453Z,28.13
2023-01-29T02:12:47.201Z,27.93
2023-01-29T02:15:42.164Z,28.18
2023-01-29T02:18:38.191Z,28.11
2023-01-29T02:21:54.093Z,28.38
2023-01-29T02:25:17.112Z,28.21
2023-01-29T02:28:24.251Z,28.40
2023-01-29T02:31:25.702Z,28.50
2023-01-29T02:34:26.749Z,28.50
2023-01-29T02:37:18.371Z,28.33
2023-01-29T02:40:15.992Z,28.45
2023-01-29T02:43:16.856Z,28.51
2023-01-29T02:46:17.493Z,28.39
2023-01-29T02:49:19.404Z,28.33
2023-01-29T02:52:16.761Z,28.57
2023-01-29T02:55:14.485Z,28.72
2023-01-29T02:58:12.024Z,28.58
2023-01-29T03:01:06.274Z,28.73
2023-01-29T03:04:00.546Z,28.76
2023-01-29T03:06:56.221Z,28.47
2023-01-29T03:09:53.128Z,28.59
2023-01-29T03:12:48.161Z,28.63
2023-01-29T03:15:47.669Z,28.79
2023-01-29T03:18:56.406Z,28.80
2023-01-29T03:21:55.480Z,28.59
2023-01-29T03:25:06.471Z,28.87
2023-01-29T03:28:18.843Z,28.68
2023-01-29T03:31:32.251Z,28.72
2023-01-29T03:34:39.093Z,28.83
2023-01-29T03:37:36.089Z,28.67
2023-01-29T03:40:30.244Z,29.01
2023-01-29T03:43:32.339Z,29.18
2023-01-29T03:46:29.843Z,28.99
2023-01-29T03:49:25.446Z,28.98
2023-01-29T03:52:21.979Z,29.13
2023-01-29T03:55:19.084Z,29.09
2023-01-29T03:58:22.189Z,29.15
2023-01-29T04:01:20.603Z,29.46
2023-01-29T04:04:16.727Z,29.27
2023-01-29T04:07:12.446Z,29.03
2023-01-29T04:10:07.653Z,29.04
2023-01-29T04:13:04.182Z,29.25
2023-01-29T04:15:58.434Z,29.09
2023-01-29T04:19:08.821Z,29.17
2023-01-29T04:22:08.624Z,29.21
2023-01-29T04:25:02.972Z,29.18
2023-01-29T04:28:06.516Z,29.05
2023-01-29T04:31:04.841Z,29.20
2023-01-29T04:34:07.325Z,29.01
2023-01-29T04:37:10.560Z,29.02
2023-01-29T04:40:10.009Z,29.14
2023-01-29T04:43:08.204Z,29.11
2023-01-29T04:46:11.933Z,29.22
2023-01-29T04:49:19.877Z,28.97
2023-01-29T04:52:17.375Z,28.92
2023-01-29T04:55:15.433Z,28.90
2023-01-29T04:58:13.406Z,29.16
2023-01-29T05:01:06.971Z,29.31
2023-01-29T05:03:57.720Z,29.37
2023-01-29T05:06:49.093Z,29.22
2023-01-29T05:09:40.530Z,29.30
2023-01-29T05:12:32.524Z,29.38
2023-01-29T05:15:28.320Z,29.31
2023-01-29T05:18:19.367Z,29.47
2023-01-29T05:21:11.007Z,29.38
2023-01-29T05:24:13.875Z,29.35
2023-01-29T05:27:22.086Z,29.38
2023-01-29T05:30:15.334Z,29.26
2023-01-29T05:33:06.589Z,29.48
2023-01-29T05:35:57.981Z,29.46
2023-01-29T05:38:48.209Z,29.57
2023-01-29T05:41:38.570Z,29.59
2023-01-29T05:44:29.427Z,29.46
2023-01-29T05:47:23.692Z,29.34
2023-01-29T05:50:15.898Z,29.09
2023-01-29T05:53:07.039Z,29.24
2023-01-29T05:55:57.872Z,29.31
2023-01-29T05:58:48.561Z,29.36
2023-01-29T06:01:39.003Z,29.19
2023-01-29T06:04:29.806Z,29.11
2023-01-29T06:07:20.513Z,29.03
2023-01-29T06:10:13.049Z,28.89
2023-01-29T06:13:03.900Z,28.97
2023-01-29T06:15:54.870Z,29.10
2023-01-29T06:18:45.474Z,29.12
2023-01-29T06:21:35.536Z,29.06
2023-01-29T06:24:26.519Z,29.15
2023-01-29T06:27:17.082Z,29.07
2023-01-29T06:30:09.160Z,29.05
2023-01-29T06:33:01.771Z,29.17
2023-01-29T06:35:56.357Z,29.44
2023-01-29T06:38:47.485Z,29.23
2023-01-29T06:41:37.856Z,29.14
2023-01-29T06:44:27.831Z,29.48
2023-01-29T06:47:18.739Z,29.29
2023-01-29T06:50:10.164Z,29.28
2023-01-29T06:53:01.832Z,29.16
2023-01-29T06:55:55.747Z,29.09
2023-01-29T06:58:46.945Z,29.21
2023-01-29T07:01:41.158Z,29.55
2023-01-29T07:04:31.710Z,29.67
2023-01-29T07:07:21.825Z,29.58
2023-01-29T07:10:13.558Z,29.37
2023-01-29T07:13:04.210Z,29.67
2023-01-29T07:15:55.224Z,30.08
2023-01-29T07:18:45.773Z,29.74
2023-01-29T07:21:35.931Z,30.04
2023-01-29T07:24:26.768Z,29.78
2023-01-29T07:27:17.139Z,29.38
2023-01-29T07:30:11.824Z,29.37
2023-01-29T07:33:08.224Z,29.23
2023-01-29T07:35:59.006Z,29.42
2023-01-29T07:38:52.039Z,29.62
2023-01-29T07:41:42.147Z,30.32
2023-01-29T07:44:39.187Z,30.21
2023-01-29T07:47:29.504Z,29.45
2023-01-29T07:50:20.539Z,29.51
2023-01-29T07:53:16.068Z,29.35
2023-01-29T07:56:06.802Z,29.35
2023-01-29T07:58:57.300Z,29.56
2023-01-29T08:01:47.548Z,29.44
2023-01-29T08:04:38.045Z,29.42
2023-01-29T08:07:27.953Z,29.17
2023-01-29T08:10:19.412Z,29.10
2023-01-29T08:13:10.232Z,28.95
2023-01-29T08:16:04.489Z,28.98
2023-01-29T08:18:54.825Z,28.81
2023-01-29T08:21:44.976Z,29.03
2023-01-29T08:24:47.654Z,28.91
2023-01-29T08:27:44.480Z,29.18
2023-01-29T08:30:36.926Z,29.43
2023-01-29T08:33:38.689Z,29.27
2023-01-29T08:36:29.483Z,29.05
2023-01-29T08:39:21.262Z,29.16
2023-01-29T08:42:11.982Z,29.01
2023-01-29T08:45:02.553Z,28.76
2023-01-29T08:47:52.934Z,28.68
2023-01-29T08:50:43.107Z,28.50
2023-01-29T08:53:33.531Z,28.52
2023-01-29T08:56:24.092Z,27.44
2023-01-29T08:59:15.222Z,26.77
2023-01-29T09:02:05.356Z,26.08
2023-01-29T09:04:55.163Z,26.09
2023-01-29T09:07:45.359Z,25.48
2023-01-29T09:10:35.233Z,25.02
2023-01-29T09:13:25.756Z,24.83
2023-01-29T09:16:15.780Z,24.50
2023-01-29T09:19:05.990Z,24.41
2023-01-29T09:21:56.421Z,23.86
2023-01-29T09:24:46.508Z,23.97
2023-01-29T09:27:36.939Z,23.74
2023-01-29T09:30:27.283Z,23.99
2023-01-29T09:33:18.402Z,23.53
2023-01-29T09:36:10.477Z,23.52
2023-01-29T09:39:02.073Z,23.42
2023-01-29T09:41:58.523Z,23.36
2023-01-29T09:44:58.695Z,23.18
2023-01-29T09:47:50.508Z,23.23
2023-01-29T09:50:45.616Z,23.69
2023-01-29T09:53:42.170Z,23.90
2023-01-29T09:56:33.897Z,23.84
2023-01-29T09:59:28.236Z,23.44
2023-01-29T10:02:40.167Z,23.36
2023-01-29T10:05:51.970Z,23.01
2023-01-29T10:09:16.280Z,22.86
2023-01-29T10:12:20.446Z,22.77
2023-01-29T10:15:22.764Z,22.72
2023-01-29T10:18:34.871Z,23.17
2023-01-29T10:21:38.989Z,22.90
2023-01-29T10:24:39.408Z,22.69
2023-01-29T10:27:38.515Z,22.68
2023-01-29T10:30:36.031Z,22.62
2023-01-29T10:33:49.646Z,22.37
2023-01-29T10:36:46.182Z,22.36
2023-01-29T10:39:36.284Z,22.15
2023-01-29T10:42:35.445Z,22.14
2023-01-29T10:45:33.118Z,22.18
2023-01-29T10:48:41.934Z,22.11
2023-01-29T10:51:48.545Z,22.05
2023-01-29T10:54:55.490Z,21.86
2023-01-29T10:58:02.873Z,22.03
2023-01-29T11:00:53.726Z,21.85
2023-01-29T11:03:44.275Z,21.78
2023-01-29T11:06:36.359Z,21.65
2023-01-29T11:09:34.577Z,21.66
2023-01-29T11:12:30.815Z,21.51
2023-01-29T11:15:25.911Z,21.57
2023-01-29T11:18:17.941Z,21.56
2023-01-29T11:21:08.267Z,21.26
2023-01-29T11:24:18.808Z,20.96
2023-01-29T11:27:23.176Z,21.20
2023-01-29T11:30:21.355Z,21.56
2023-01-29T11:33:14.131Z,21.16
2023-01-29T11:36:29.374Z,21.43
2023-01-29T11:39:23.133Z,21.63
2023-01-29T11:42:23.223Z,21.11
2023-01-29T11:45:30.109Z,20.98
2023-01-29T11:48:22.434Z,21.22
2023-01-29T11:51:22.094Z,21.26
2023-01-29T11:54:21.026Z,21.28
2023-01-29T11:57:27.755Z,21.42
2023-01-29T12:00:25.269Z,21.32
2023-01-29T12:03:25.024Z,21.08
2023-01-29T12:06:22.582Z,21.58
2023-01-29T12:09:18.023Z,21.49
2023-01-29T12:12:29.036Z,20.93
2023-01-29T12:15:25.650Z,21.30
2023-01-29T12:18:24.917Z,21.69
2023-01-29T12:21:21.905Z,21.58
2023-01-29T12:24:26.531Z,21.23
2023-01-29T12:27:24.054Z,21.31
2023-01-29T12:30:21.455Z,21.06
2023-01-29T12:33:25.139Z,20.80
2023-01-29T12:36:22.707Z,20.87
2023-01-29T12:39:17.919Z,20.81
2023-01-29T12:42:13.344Z,20.52
2023-01-29T12:45:08.313Z,20.90
2023-01-29T12:48:02.647Z,20.54
2023-01-29T12:50:54.466Z,20.48
2023-01-29T12:53:49.323Z,20.94
2023-01-29T12:56:43.736Z,20.87
2023-01-29T12:59:39.116Z,20.61
2023-01-29T13:02:36.871Z,20.69
2023-01-29T13:05:31.451Z,20.81
2023-01-29T13:08:25.210Z,20.69
2023-01-29T13:11:22.425Z,20.63
2023-01-29T13:14:20.781Z,20.75
2023-01-29T13:17:15.739Z,20.85
2023-01-29T13:20:15.116Z,20.78
2023-01-29T13:23:27.250Z,20.66
2023-01-29T13:26:21.118Z,20.48
2023-01-29T13:29:24.941Z,20.42
2023-01-29T13:32:21.411Z,20.27
2023-01-29T13:35:17.684Z,20.15
2023-01-29T13:38:23.498Z,20.20
2023-01-29T13:41:15.047Z,20.39
2023-01-29T13:44:07.735Z,20.17
2023-01-29T13:47:02.898Z,19.67
2023-01-29T13:50:01.406Z,19.82
2023-01-29T13:52:57.963Z,19.80
2023-01-29T13:55:48.787Z,19.96
2023-01-29T13:58:58.485Z,20.14
2023-01-29T14:02:23.717Z,20.25
2023-01-29T14:05:42.180Z,20.17
2023-01-29T14:08:45.390Z,20.28
2023-01-29T14:11:39.259Z,20.59
2023-01-29T14:14:53.239Z,20.57
2023-01-29T14:17:55.241Z,20.49
2023-01-29T14:20:55.439Z,20.40
2023-01-29T14:23:48.975Z,20.33
2023-01-29T14:26:46.082Z,20.31
2023-01-29T14:29:42.956Z,20.37
2023-01-29T14:32:33.902Z,20.40
2023-01-29T14:35:27.046Z,20.52
2023-01-29T14:38:17.901Z,20.62
2023-01-29T14:41:17.574Z,20.65
2023-01-29T14:44:42.789Z,20.77
2023-01-29T14:47:58.275Z,20.63
2023-01-29T14:51:12.404Z,20.55
2023-01-29T14:54:07.399Z,20.57
2023-01-29T14:57:02.747Z,20.50
2023-01-29T14:59:59.075Z,20.52
2023-01-29T15:02:59.867Z,20.72
2023-01-29T15:05:53.270Z,20.89
2023-01-29T15:08:48.488Z,20.85
2023-01-29T15:11:45.542Z,20.88
2023-01-29T15:14:37.934Z,20.80
2023-01-29T15:17:34.297Z,20.78
2023-01-29T15:20:32.737Z,20.80
2023-01-29T15:23:29.563Z,20.84
2023-01-29T15:26:26.002Z,21.10
2023-01-29T15:29:27.213Z,21.07
2023-01-29T15:32:30.961Z,21.09
2023-01-29T15:35:31.135Z,21.22
2023-01-29T15:38:23.141Z,21.23
2023-01-29T15:41:20.905Z,21.33
2023-01-29T15:44:18.740Z,21.61
2023-01-29T15:47:11.199Z,21.55
2023-01-29T15:50:03.101Z,21.93
2023-01-29T15:52:55.870Z,22.07
2023-01-29T15:55:47.569Z,22.23
2023-01-29T15:58:38.029Z,22.36
2023-01-29T16:01:31.451Z,22.57
2023-01-29T16:04:26.939Z,22.63
2023-01-29T16:07:17.044Z,22.67
2023-01-29T16:10:09.077Z,22.69
2023-01-29T16:13:00.094Z,22.57
2023-01-29T16:15:59.880Z,22.51
2023-01-29T16:19:00.140Z,22.54
2023-01-29T16:21:57.211Z,22.56
2023-01-29T16:24:47.973Z,22.60
2023-01-29T16:27:38.346Z,22.62
2023-01-29T16:30:29.894Z,22.75
2023-01-29T16:33:21.696Z,22.82
2023-01-29T16:36:18.436Z,22.86
2023-01-29T16:39:19.891Z,22.91
2023-01-29T16:42:31.147Z,23.09
2023-01-29T16:45:31.480Z,23.19
2023-01-29T16:48:32.191Z,23.36
2023-01-29T16:51:27.050Z,23.55
2023-01-29T16:54:19.822Z,23.75
2023-01-29T16:57:16.672Z,23.92
2023-01-29T17:00:19.621Z,24.22
2023-01-29T17:03:13.536Z,24.17
2023-01-29T17:06:13.017Z,24.14
2023-01-29T17:09:03.930Z,24.46
2023-01-29T17:11:57.995Z,24.25
2023-01-29T17:14:58.286Z,24.32
2023-01-29T17:17:49.997Z,24.27
2023-01-29T17:20:40.178Z,24.36
2023-01-29T17:23:30.814Z,24.49
2023-01-29T17:26:24.757Z,24.46
2023-01-29T17:29:20.223Z,24.51
2023-01-29T17:32:12.434Z,24.47
2023-01-29T17:35:02.503Z,24.53
2023-01-29T17:37:53.284Z,24.60
2023-01-29T17:40:47.698Z,24.66
2023-01-29T17:43:37.502Z,24.67
2023-01-29T17:46:28.629Z,24.75
2023-01-29T17:49:25.139Z,24.86
2023-01-29T17:52:15.048Z,24.83
2023-01-29T17:55:05.595Z,24.80
2023-01-29T17:57:55.842Z,24.88
2023-01-29T18:00:45.993Z,24.87
2023-01-29T18:03:36.334Z,24.93
2023-01-29T18:06:29.754Z,25.06
2023-01-29T18:09:22.848Z,25.09
2023-01-29T18:12:14.493Z,25.11
2023-01-29T18:15:05.064Z,25.13
2023-01-29T18:17:55.466Z,25.22
2023-01-29T18:20:45.684Z,25.20
2023-01-29T18:23:35.940Z,25.34
2023-01-29T18:26:26.712Z,25.26
2023-01-29T18:29:16.977Z,25.36
2023-01-29T18:32:08.426Z,25.27
2023-01-29T18:34:59.738Z,25.43
2023-01-29T18:37:50.374Z,25.47
2023-01-29T18:40:40.584Z,25.67
2023-01-29T18:43:30.290Z,25.67
2023-01-29T18:46:20.841Z,25.74
2023-01-29T18:49:11.674Z,25.83
2023-01-29T18:52:01.607Z,25.94
2023-01-29T18:54:52.012Z,26.04
2023-01-29T18:58:26.096Z,26.06
2023-01-29T19:00:53.312Z,26.03
2023-01-29T19:03:44.558Z,26.31
2023-01-29T19:06:37.201Z,26.29
2023-01-29T19:09:28.923Z,26.36
2023-01-29T19:12:19.205Z,26.31
2023-01-29T19:15:14.382Z,26.35
2023-01-29T19:18:04.427Z,26.42
2023-01-29T19:20:55.352Z,26.55
2023-01-29T19:23:46.170Z,26.52
2023-01-29T19:26:36.504Z,26.58
2023-01-29T19:29:28.712Z,26.64
2023-01-29T19:32:19.220Z,26.70
2023-01-29T19:35:10.253Z,26.81
2023-01-29T19:38:00.547Z,26.88
2023-01-29T19:40:51.380Z,26.95
2023-01-29T19:43:42.187Z,26.86
2023-01-29T19:46:32.425Z,26.99
2023-01-29T19:49:22.655Z,27.04
2023-01-29T19:52:49.864Z,27.17
2023-01-29T19:55:40.582Z,27.10
2023-01-29T19:58:31.036Z,27.15
2023-01-29T20:01:22.577Z,27.15
2023-01-29T20:04:12.702Z,27.23
2023-01-29T20:07:02.456Z,27.18
2023-01-29T20:09:52.826Z,27.28
2023-01-29T20:12:43.814Z,27.44
2023-01-29T20:15:35.835Z,27.51
2023-01-29T20:18:26.415Z,27.56
2023-01-29T20:21:18.396Z,27.62
2023-01-29T20:24:12.865Z,27.72
2023-01-29T20:27:03.406Z,27.79
2023-01-29T20:29:53.308Z,27.90
2023-01-29T20:32:43.551Z,28.02
2023-01-29T20:35:34.814Z,28.07
2023-01-29T20:38:26.217Z,28.13
2023-01-29T20:41:18.667Z,28.14
2023-01-29T20:44:09.945Z,28.20
2023-01-29T20:47:02.784Z,28.29
2023-01-29T20:49:53.306Z,28.35
2023-01-29T20:52:44.093Z,28.41
2023-01-29T20:55:34.342Z,28.54
2023-01-29T20:58:24.537Z,28.59
2023-01-29T21:01:17.049Z,28.63
2023-01-29T21:04:07.427Z,28.65
2023-01-29T21:06:57.538Z,28.75
2023-01-29T21:09:47.699Z,28.88
2023-01-29T21:12:38.103Z,28.76
2023-01-29T21:15:28.078Z,28.73
2023-01-29T21:18:18.268Z,28.75
2023-01-29T21:21:09.267Z,28.75
2023-01-29T21:23:59.585Z,28.74
2023-01-29T21:26:50.254Z,28.87
2023-01-29T21:29:40.707Z,28.88
2023-01-29T21:32:30.773Z,28.91
2023-01-29T21:35:21.455Z,28.96
2023-01-29T21:38:11.374Z,29.00
2023-01-29T21:41:06.707Z,29.05
2023-01-29T21:43:56.409Z,29.11
2023-01-29T21:46:47.677Z,29.19
2023-01-29T21:49:38.413Z,29.27
2023-01-29T21:52:28.983Z,29.35
2023-01-29T21:55:19.187Z,29.43
2023-01-29T21:58:09.515Z,29.44
2023-01-29T22:01:35.596Z,29.49
2023-01-29T22:04:11.895Z,29.66
2023-01-29T22:07:02.284Z,29.61
2023-01-29T22:09:52.830Z,29.59
2023-01-29T22:12:44.028Z,29.59
2023-01-29T22:15:34.727Z,29.66
2023-01-29T22:18:25.363Z,29.59
2023-01-29T22:21:16.031Z,29.60
2023-01-29T22:24:07.678Z,29.75
2023-01-29T22:26:57.997Z,29.90
2023-01-29T22:29:47.891Z,29.97
2023-01-29T22:32:37.683Z,29.98
2023-01-29T22:35:28.041Z,30.06
2023-01-29T22:38:18.058Z,30.13
2023-01-29T22:41:08.164Z,30.23
2023-01-29T22:43:58.719Z,30.29
2023-01-29T22:46:49.723Z,30.38
2023-01-29T22:49:40.325Z,30.51
2023-01-29T22:52:38.716Z,30.66
2023-01-29T22:55:28.904Z,30.73
2023-01-29T22:58:18.824Z,30.81
2023-01-29T23:01:11.966Z,30.90
2023-01-29T23:04:02.498Z,30.96
2023-01-29T23:06:52.306Z,31.07
2023-01-29T23:09:43.735Z,31.13
2023-01-29T23:12:34.045Z,31.20
2023-01-29T23:15:24.210Z,31.32
2023-01-29T23:18:14.430Z,31.43
2023-01-29T23:21:05.039Z,31.49
2023-01-29T23:23:55.674Z,31.63
2023-01-29T23:27:03.444Z,31.77
2023-01-29T23:29:53.494Z,31.91
2023-01-29T23:32:43.783Z,31.90
2023-01-29T23:35:34.170Z,31.95
2023-01-29T23:38:24.689Z,32.08
2023-01-29T23:41:14.799Z,32.13
2023-01-29T23:44:05.788Z,32.20
2023-01-29T23:46:56.188Z,32.30
2023-01-29T23:49:46.311Z,32.54
2023-01-29T23:52:36.547Z,32.50
2023-01-29T23:55:26.957Z,32.56
2023-01-29T23:58:17.174Z,32.62
